Time;durP1;ratioP1;P1;durP2;ratioP2;P2;SDS_P1;SDS_P2;PMS_P1;PMS_P2;Temp;Humidity;BMP_temperature;BMP_pressure;BME280_temperature;BME280_humidity;BME280_pressure;Samples;Min_cycle;Max_cycle;Signal;HPM_P1;HPM_P2
2022/11/20 00:00:50;;;;;;;2.07;1.50;;;6.30;99.90;;;;;;5012861;28;21093;-75
2022/11/20 00:03:17;;;;;;;2.90;1.77;;;6.30;99.90;;;;;;5013021;28;20477;-75
2022/11/20 00:05:43;;;;;;;2.10;1.90;;;6.30;99.90;;;;;;5013104;28;20538;-76
2022/11/20 00:08:08;;;;;;;2.30;2.07;;;6.30;99.90;;;;;;5013428;28;20470;-76
2022/11/20 00:10:39;;;;;;;1.70;1.40;;;6.20;99.90;;;;;;5013661;28;20815;-76
2022/11/20 00:13:06;;;;;;;1.73;1.33;;;6.20;99.90;;;;;;5011654;28;20185;-76
2022/11/20 00:15:31;;;;;;;1.53;1.43;;;6.20;99.90;;;;;;5012742;28;20423;-76
2022/11/20 00:17:57;;;;;;;2.80;1.50;;;6.20;99.90;;;;;;5011298;28;20452;-76
2022/11/20 00:20:22;;;;;;;2.30;1.73;;;6.20;99.90;;;;;;5011205;28;21100;-76
2022/11/20 00:22:49;;;;;;;2.70;1.50;;;6.20;99.90;;;;;;5011205;28;20196;-76
2022/11/20 00:25:15;;;;;;;5.03;1.90;;;6.10;99.90;;;;;;5012363;28;20205;-76
2022/11/20 00:27:40;;;;;;;1.93;1.40;;;6.10;99.90;;;;;;5012594;28;20412;-75
2022/11/20 00:30:07;;;;;;;2.00;1.57;;;6.20;99.90;;;;;;5010989;28;20204;-76
2022/11/20 00:32:33;;;;;;;3.00;1.70;;;6.10;99.90;;;;;;5012442;28;20182;-77
2022/11/20 00:34:58;;;;;;;1.93;1.80;;;6.10;99.90;;;;;;5012236;28;20422;-77
2022/11/20 00:37:24;;;;;;;1.80;1.50;;;6.10;99.90;;;;;;5010981;28;20459;-77
2022/11/20 00:39:49;;;;;;;2.30;1.50;;;6.10;99.90;;;;;;5010731;28;20276;-78
2022/11/20 00:42:15;;;;;;;1.70;1.60;;;6.10;99.90;;;;;;4994494;28;20189;-77
2022/11/20 00:44:41;;;;;;;6.73;1.67;;;6.10;99.90;;;;;;5012273;28;20212;-76
2022/11/20 00:47:06;;;;;;;2.27;2.07;;;6.00;99.90;;;;;;5010501;28;20251;-78
2022/11/20 00:49:32;;;;;;;2.40;1.57;;;6.00;99.90;;;;;;5010130;28;20330;-76
2022/11/20 00:51:57;;;;;;;2.67;1.87;;;6.00;99.90;;;;;;5010072;28;20185;-75
2022/11/20 00:54:23;;;;;;;3.60;2.17;;;6.00;99.90;;;;;;5009943;28;20280;-75
2022/11/20 00:56:48;;;;;;;3.33;2.13;;;5.90;99.90;;;;;;5011189;28;20185;-75
2022/11/20 00:59:14;;;;;;;3.00;1.90;;;5.90;99.90;;;;;;5010191;28;20211;-79
2022/11/20 01:01:40;;;;;;;5.23;2.40;;;5.90;99.90;;;;;;5010133;28;20243;-79
2022/11/20 01:04:05;;;;;;;2.80;1.97;;;5.90;99.90;;;;;;4976948;28;20287;-81
2022/11/20 01:06:36;;;;;;;2.43;1.87;;;6.10;99.90;;;;;;4993603;28;20197;-79
2022/11/20 01:09:12;;;;;;;3.70;2.30;;;5.90;99.90;;;;;;5010479;28;20428;-79
2022/11/20 01:11:43;;;;;;;2.40;1.87;;;5.90;99.90;;;;;;5012902;28;20400;-83
2022/11/20 01:14:15;;;;;;;4.30;1.73;;;5.90;99.90;;;;;;5013236;28;20436;-82
2022/11/20 01:16:48;;;;;;;1.60;1.50;;;5.90;99.90;;;;;;4980295;28;20423;-82
2022/11/20 01:19:16;;;;;;;2.33;1.90;;;5.90;99.90;;;;;;5012438;28;20433;-82
2022/11/20 01:21:43;;;;;;;4.30;2.00;;;5.90;99.90;;;;;;5011082;28;20539;-80
2022/11/20 01:24:12;;;;;;;2.23;2.03;;;6.00;99.90;;;;;;5009444;28;20479;-81
2022/11/20 01:26:40;;;;;;;5.60;2.20;;;6.00;99.90;;;;;;4993565;28;20420;-85
2022/11/20 01:29:06;;;;;;;3.20;2.63;;;5.80;99.90;;;;;;4976916;28;20440;-80
2022/11/20 01:31:34;;;;;;;2.90;2.30;;;5.80;99.90;;;;;;5011188;28;20527;-78
2022/11/20 01:34:06;;;;;;;4.63;2.60;;;5.80;99.90;;;;;;5010698;28;20443;-78
2022/11/20 01:36:33;;;;;;;2.50;2.30;;;5.80;99.90;;;;;;5010664;28;20425;-75
2022/11/20 01:39:01;;;;;;;3.13;2.67;;;5.80;99.90;;;;;;5008886;28;21000;-80
2022/11/20 01:44:16;;;;;;;2.33;2.13;;;5.80;99.90;;;;;;5009593;28;20844;-79
2022/11/20 01:46:55;;;;;;;4.07;2.50;;;5.70;99.90;;;;;;5008957;28;20460;-79
2022/11/20 01:49:32;;;;;;;2.97;2.30;;;5.70;99.90;;;;;;5010330;28;20478;-78
2022/11/20 01:52:03;;;;;;;5.30;2.13;;;5.70;99.90;;;;;;5008664;28;20416;-78
2022/11/20 01:54:35;;;;;;;4.50;2.10;;;5.70;99.90;;;;;;5008731;28;20511;-79
2022/11/20 01:57:03;;;;;;;3.57;2.50;;;5.70;99.90;;;;;;5010049;28;20884;-79
2022/11/20 01:59:30;;;;;;;3.90;2.90;;;5.70;99.90;;;;;;4976303;28;21051;-78
2022/11/20 02:01:55;;;;;;;3.33;3.03;;;5.60;99.90;;;;;;5010212;28;20439;-78
2022/11/20 02:04:22;;;;;;;5.20;2.40;;;5.60;99.90;;;;;;5010102;28;20866;-79
2022/11/20 02:07:00;;;;;;;6.03;2.47;;;5.60;99.90;;;;;;5009368;28;20185;-79
2022/11/20 02:09:27;;;;;;;3.47;2.40;;;5.50;99.90;;;;;;5010563;28;20474;-79
2022/11/20 02:11:53;;;;;;;6.20;2.63;;;5.50;99.90;;;;;;5010376;28;20448;-80
2022/11/20 02:14:21;;;;;;;9.67;2.50;;;5.50;99.90;;;;;;5013645;28;20428;-79
2022/11/20 02:16:48;;;;;;;3.80;2.50;;;5.40;99.90;;;;;;5010557;28;20537;-80
2022/11/20 02:19:24;;;;;;;5.50;2.07;;;5.50;99.90;;;;;;4993043;28;20435;-79
2022/11/20 02:22:07;;;;;;;2.33;2.13;;;5.50;99.90;;;;;;5009387;28;20432;-78
2022/11/20 02:24:33;;;;;;;6.70;2.10;;;5.50;99.90;;;;;;5008696;28;20475;-78
2022/11/20 02:27:06;;;;;;;3.40;2.30;;;5.60;99.90;;;;;;5011116;28;20428;-78
2022/11/20 02:30:01;;;;;;;3.80;2.33;;;5.60;99.90;;;;;;5008904;28;20481;-78
2022/11/20 02:32:33;;;;;;;3.07;2.10;;;5.60;99.90;;;;;;5011222;28;20455;-79
2022/11/20 02:35:18;;;;;;;2.10;1.90;;;5.60;99.90;;;;;;5009674;28;20431;-79
2022/11/20 02:37:47;;;;;;;3.73;1.70;;;5.70;99.90;;;;;;5012092;28;20447;-79
2022/11/20 02:40:14;;;;;;;2.83;2.37;;;5.70;99.90;;;;;;5010131;28;20463;-78
2022/11/20 02:42:40;;;;;;;2.07;1.87;;;5.70;99.90;;;;;;5011312;28;20498;-79
2022/11/20 02:45:06;;;;;;;3.57;2.20;;;5.70;99.90;;;;;;4993744;28;20474;-80
2022/11/20 02:47:32;;;;;;;1.47;1.37;;;5.70;99.90;;;;;;4994177;28;20523;-80
2022/11/20 02:49:58;;;;;;;2.37;2.17;;;5.80;99.90;;;;;;4992804;28;20542;-79
2022/11/20 02:52:24;;;;;;;2.80;2.00;;;5.80;99.90;;;;;;4993766;28;20436;-79
2022/11/20 02:54:50;;;;;;;3.13;1.83;;;5.80;99.90;;;;;;5011501;28;20268;-79
2022/11/20 02:57:16;;;;;;;4.13;1.90;;;5.70;99.90;;;;;;4977743;28;20921;-79
2022/11/20 02:59:41;;;;;;;1.50;1.37;;;5.70;99.90;;;;;;5012206;28;20215;-79
2022/11/20 03:02:07;;;;;;;1.70;1.50;;;5.80;99.90;;;;;;4993008;28;20428;-79
2022/11/20 03:04:32;;;;;;;3.30;1.63;;;5.90;99.90;;;;;;5008842;28;20884;-79
2022/11/20 03:06:58;;;;;;;3.17;1.57;;;5.80;99.90;;;;;;5010132;28;20239;-79
2022/11/20 03:09:24;;;;;;;1.47;1.20;;;5.80;99.90;;;;;;4992417;28;20247;-79
2022/11/20 03:11:49;;;;;;;1.70;1.60;;;5.80;99.90;;;;;;4992934;28;20189;-78
2022/11/20 03:14:15;;;;;;;3.80;1.70;;;5.80;99.90;;;;;;5008679;28;20203;-79
2022/11/20 03:16:40;;;;;;;1.43;1.27;;;5.80;99.90;;;;;;5008782;28;20212;-76
2022/11/20 03:19:06;;;;;;;2.93;1.93;;;5.80;99.90;;;;;;5010261;28;20196;-80
2022/11/20 03:21:35;;;;;;;3.50;1.83;;;5.80;99.90;;;;;;5009102;28;20659;-78
2022/11/20 03:24:01;;;;;;;1.40;1.30;;;5.70;99.90;;;;;;5010621;28;20288;-79
2022/11/20 03:26:28;;;;;;;1.60;1.50;;;5.70;99.90;;;;;;5011032;28;20955;-78
2022/11/20 03:28:59;;;;;;;1.87;1.70;;;5.70;99.90;;;;;;4997293;28;20424;-78
2022/11/20 03:31:27;;;;;;;1.70;1.50;;;5.80;99.90;;;;;;5015398;28;20451;-79
2022/11/20 03:33:52;;;;;;;66.40;26.87;;;5.80;99.90;;;;;;5016705;28;20423;-78
2022/11/20 03:36:20;;;;;;;47.87;21.27;;;5.80;99.90;;;;;;5017307;28;20518;-78
2022/11/20 03:38:46;;;;;;;21.20;9.27;;;5.80;99.90;;;;;;5012344;28;20412;-78
2022/11/20 03:41:16;;;;;;;51.10;22.97;;;5.80;99.90;;;;;;5013422;28;20526;-78
2022/11/20 03:43:41;;;;;;;4.07;1.90;;;5.80;99.90;;;;;;5013511;28;20788;-77
2022/11/20 03:46:07;;;;;;;1.27;1.17;;;5.80;99.90;;;;;;4996314;28;20420;-77
2022/11/20 03:48:33;;;;;;;1.50;1.40;;;5.80;99.90;;;;;;4996406;28;20620;-78
2022/11/20 03:51:16;;;;;;;2.90;1.70;;;5.80;99.90;;;;;;5013220;28;20439;-78
2022/11/20 03:53:44;;;;;;;4.67;3.03;;;5.80;99.90;;;;;;5012824;28;20185;-78
2022/11/20 03:56:11;;;;;;;1.67;1.40;;;5.80;99.90;;;;;;5013243;28;20947;-77
2022/11/20 03:58:41;;;;;;;1.73;1.50;;;5.80;99.90;;;;;;5012885;28;20511;-77
2022/11/20 04:01:10;;;;;;;1.73;1.63;;;6.00;99.90;;;;;;5013118;28;20464;-77
2022/11/20 04:03:37;;;;;;;1.20;1.10;;;5.90;99.90;;;;;;4995548;28;20487;-76
2022/11/20 04:06:12;;;;;;;1.97;1.27;;;5.90;99.90;;;;;;4995311;28;20424;-76
2022/11/20 04:08:38;;;;;;;2.67;1.60;;;5.90;99.90;;;;;;4995543;28;20427;-77
2022/11/20 04:11:17;;;;;;;3.73;2.90;;;6.00;99.90;;;;;;5012419;28;20921;-77
2022/11/20 04:13:47;;;;;;;12.67;4.10;;;6.10;99.90;;;;;;5011340;28;20420;-77
2022/11/20 04:16:12;;;;;;;2.50;1.73;;;6.10;99.90;;;;;;4996003;28;21028;-78
2022/11/20 04:18:38;;;;;;;1.53;1.40;;;6.00;99.90;;;;;;5012442;28;20440;-79
2022/11/20 04:21:05;;;;;;;5.60;1.80;;;6.10;99.90;;;;;;5017439;28;20205;-77
2022/11/20 04:23:31;;;;;;;1.37;1.27;;;6.10;99.90;;;;;;5015043;28;20423;-78
2022/11/20 04:26:07;;;;;;;2.33;1.27;;;6.10;99.90;;;;;;4997610;28;20432;-78
2022/11/20 04:28:32;;;;;;;2.03;1.73;;;6.10;99.90;;;;;;5013385;28;20427;-77
2022/11/20 04:31:12;;;;;;;1.40;1.30;;;6.10;99.90;;;;;;5016432;28;20635;-77
2022/11/20 04:33:38;;;;;;;4.10;1.30;;;6.10;99.90;;;;;;5012808;28;20293;-77
2022/11/20 04:36:06;;;;;;;2.30;1.50;;;6.00;99.90;;;;;;5012311;28;20925;-78
2022/11/20 04:38:32;;;;;;;1.97;1.30;;;6.10;99.90;;;;;;5014700;28;20945;-77
2022/11/20 04:41:03;;;;;;;2.90;1.60;;;6.10;99.90;;;;;;5012988;28;20483;-77
2022/11/20 04:43:29;;;;;;;1.33;1.23;;;6.10;99.90;;;;;;5016819;28;21046;-78
2022/11/20 04:45:56;;;;;;;2.23;1.87;;;6.10;99.90;;;;;;5014292;28;20444;-77
2022/11/20 04:48:23;;;;;;;1.43;1.20;;;6.40;99.90;;;;;;5013269;28;20433;-77
2022/11/20 04:50:48;;;;;;;3.97;1.60;;;6.20;99.90;;;;;;5012265;28;20593;-77
2022/11/20 04:53:14;;;;;;;2.07;1.97;;;6.20;99.90;;;;;;5012462;28;20978;-78
2022/11/20 04:55:39;;;;;;;1.73;1.43;;;6.20;99.90;;;;;;5011201;28;20271;-77
2022/11/20 04:58:06;;;;;;;3.10;2.30;;;6.20;99.90;;;;;;5011954;28;20177;-78
2022/11/20 05:00:32;;;;;;;2.03;1.67;;;6.20;99.90;;;;;;5012383;28;20228;-77
2022/11/20 05:02:58;;;;;;;1.90;1.43;;;6.20;99.90;;;;;;5012657;28;20433;-77
2022/11/20 05:05:23;;;;;;;3.73;1.00;;;6.20;99.90;;;;;;5013361;28;20232;-78
2022/11/20 05:07:49;;;;;;;3.27;1.63;;;6.20;99.90;;;;;;5010715;28;20185;-79
2022/11/20 05:10:15;;;;;;;2.00;1.33;;;6.20;99.90;;;;;;5011132;28;20215;-77
2022/11/20 05:12:41;;;;;;;2.33;1.10;;;6.20;99.90;;;;;;5011977;28;20600;-78
2022/11/20 05:15:07;;;;;;;1.00;0.90;;;6.20;99.90;;;;;;5011722;28;20193;-77
2022/11/20 05:17:32;;;;;;;1.27;1.17;;;6.20;99.90;;;;;;5011032;28;20270;-78
2022/11/20 05:19:58;;;;;;;2.20;0.90;;;6.20;99.90;;;;;;5012375;28;21012;-77
2022/11/20 05:22:23;;;;;;;1.70;1.50;;;6.30;99.90;;;;;;5010389;28;20189;-77
2022/11/20 05:24:49;;;;;;;2.80;1.40;;;6.20;99.90;;;;;;5010643;28;20259;-77
2022/11/20 05:27:15;;;;;;;1.27;1.10;;;6.30;99.90;;;;;;4994052;28;20188;-77
2022/11/20 05:29:40;;;;;;;1.57;1.47;;;6.20;99.90;;;;;;5010012;28;20201;-78
2022/11/20 05:32:09;;;;;;;2.97;1.10;;;6.30;99.90;;;;;;5010183;28;20190;-77
2022/11/20 05:34:35;;;;;;;4.10;1.00;;;6.40;99.90;;;;;;5010121;28;20235;-76
2022/11/20 05:37:01;;;;;;;1.30;1.20;;;6.30;99.90;;;;;;5009528;28;20432;-76
2022/11/20 05:39:26;;;;;;;2.77;1.50;;;6.20;99.90;;;;;;5010656;28;20208;-76
2022/11/20 05:42:29;;;;;;;2.03;1.50;;;6.20;99.90;;;;;;5011727;28;20670;-77
2022/11/20 05:44:37;;;;;;;1.63;1.53;;;6.30;99.90;;;;;;5011849;28;20209;-77
2022/11/20 05:47:03;;;;;;;1.97;1.10;;;6.30;99.90;;;;;;5012967;28;20468;-77
2022/11/20 05:49:29;;;;;;;2.40;1.13;;;6.30;99.90;;;;;;5009456;28;20574;-77
2022/11/20 05:51:54;;;;;;;2.00;1.20;;;6.30;99.90;;;;;;5011225;28;20192;-77
2022/11/20 05:54:20;;;;;;;2.17;1.13;;;6.30;99.90;;;;;;5009541;28;20721;-77
2022/11/20 05:56:45;;;;;;;1.27;1.10;;;6.30;99.90;;;;;;4993197;28;20247;-77
2022/11/20 05:59:11;;;;;;;1.20;1.10;;;6.40;99.90;;;;;;4993128;28;20191;-77
2022/11/20 06:01:36;;;;;;;2.60;1.13;;;6.40;99.90;;;;;;5010298;28;20181;-76
2022/11/20 06:04:02;;;;;;;2.00;1.37;;;6.40;99.90;;;;;;5008769;28;20571;-77
2022/11/20 06:06:28;;;;;;;0.90;0.90;;;6.30;99.90;;;;;;5008570;28;20260;-77
2022/11/20 06:08:54;;;;;;;1.30;1.20;;;6.30;99.90;;;;;;5010180;28;20483;-77
2022/11/20 06:11:20;;;;;;;1.53;1.10;;;6.40;99.90;;;;;;5008417;28;20255;-78
2022/11/20 06:13:46;;;;;;;1.23;1.13;;;6.40;99.90;;;;;;5008356;28;20772;-78
2022/11/20 06:16:14;;;;;;;1.40;1.30;;;6.30;99.90;;;;;;5008507;28;20420;-77
2022/11/20 06:18:40;;;;;;;1.00;0.90;;;6.30;99.90;;;;;;4992097;28;20197;-78
2022/11/20 06:21:07;;;;;;;3.37;1.80;;;6.30;99.90;;;;;;5008336;28;21168;-78
2022/11/20 06:23:33;;;;;;;1.50;1.33;;;6.30;99.90;;;;;;5011779;28;20473;-77
2022/11/20 06:26:04;;;;;;;4.40;1.20;;;6.30;99.90;;;;;;5009234;28;20436;-77
2022/11/20 06:28:30;;;;;;;7.40;3.53;;;6.30;99.90;;;;;;5010173;28;20460;-77
2022/11/20 06:30:55;;;;;;;4.93;1.50;;;6.30;99.90;;;;;;5010153;28;20874;-77
2022/11/20 06:33:21;;;;;;;1.97;1.17;;;6.20;99.90;;;;;;5010496;28;20819;-77
2022/11/20 06:35:47;;;;;;;1.50;1.40;;;6.20;99.90;;;;;;5010295;28;20217;-78
2022/11/20 06:38:12;;;;;;;6.23;3.47;;;6.20;99.90;;;;;;5009130;28;20217;-77
2022/11/20 06:40:40;;;;;;;2.37;1.20;;;6.20;99.90;;;;;;4993116;28;20229;-78
2022/11/20 06:43:06;;;;;;;4.80;2.47;;;6.20;99.90;;;;;;5010323;28;20558;-80
2022/11/20 06:45:32;;;;;;;3.73;2.83;;;6.20;99.90;;;;;;5010007;28;20467;-77
2022/11/20 06:47:58;;;;;;;1.83;1.73;;;6.20;99.90;;;;;;4992264;28;20185;-78
2022/11/20 06:50:24;;;;;;;1.93;1.20;;;6.20;99.90;;;;;;5008924;28;20212;-78
2022/11/20 06:52:49;;;;;;;1.73;1.50;;;6.20;99.90;;;;;;5008753;28;20416;-78
2022/11/20 06:55:15;;;;;;;2.17;1.20;;;6.20;99.90;;;;;;5008448;28;20200;-78
2022/11/20 06:57:41;;;;;;;1.50;1.40;;;6.20;99.90;;;;;;5008613;28;20192;-78
2022/11/20 07:00:07;;;;;;;4.23;1.60;;;6.20;99.90;;;;;;5008077;28;20573;-79
2022/11/20 07:02:32;;;;;;;28.97;13.33;;;6.20;99.90;;;;;;5008074;28;20185;-78
2022/11/20 07:04:58;;;;;;;2.70;1.50;;;6.20;99.90;;;;;;5008697;28;20491;-79
2022/11/20 07:07:24;;;;;;;1.40;1.30;;;6.20;99.90;;;;;;5008204;28;20192;-78
2022/11/20 07:09:49;;;;;;;14.03;6.40;;;6.20;99.90;;;;;;5007900;28;20204;-79
2022/11/20 07:12:15;;;;;;;3.23;1.80;;;6.20;99.90;;;;;;5009848;28;20178;-79
2022/11/20 07:14:40;;;;;;;6.40;4.60;;;6.20;99.90;;;;;;5008214;28;20288;-79
2022/11/20 07:17:06;;;;;;;2.80;1.90;;;6.20;99.90;;;;;;4991963;28;20198;-78
2022/11/20 07:19:31;;;;;;;7.00;6.40;;;6.20;99.90;;;;;;4992424;28;20204;-78
2022/11/20 07:21:57;;;;;;;5.97;1.90;;;6.30;99.90;;;;;;5009603;28;20181;-78
2022/11/20 07:24:23;;;;;;;1.53;1.00;;;6.30;99.90;;;;;;5009436;28;20219;-78
2022/11/20 07:26:49;;;;;;;3.07;1.13;;;6.20;99.90;;;;;;5009733;28;20188;-78
2022/11/20 07:29:15;;;;;;;1.10;1.00;;;6.20;99.90;;;;;;5009668;28;20188;-78
2022/11/20 07:31:41;;;;;;;1.73;1.37;;;6.30;99.90;;;;;;4992311;28;20435;-78
2022/11/20 07:34:06;;;;;;;1.77;1.03;;;6.30;99.90;;;;;;5007699;28;20436;-78
2022/11/20 07:36:32;;;;;;;1.97;1.10;;;6.30;99.90;;;;;;5008085;28;20181;-78
2022/11/20 07:38:57;;;;;;;1.20;0.90;;;6.40;99.90;;;;;;5007990;28;20204;-78
2022/11/20 07:41:23;;;;;;;1.20;1.00;;;6.40;99.90;;;;;;5007708;28;20279;-78
2022/11/20 07:43:48;;;;;;;3.20;1.00;;;6.50;99.90;;;;;;5008962;28;20562;-78
2022/11/20 07:46:14;;;;;;;1.00;0.90;;;6.50;99.90;;;;;;4991577;28;20196;-79
2022/11/20 07:48:40;;;;;;;1.57;1.20;;;6.50;99.90;;;;;;5007358;28;20188;-78
2022/11/20 07:51:05;;;;;;;3.43;1.10;;;6.50;99.90;;;;;;5008969;28;20197;-78
2022/11/20 07:53:31;;;;;;;1.27;0.90;;;6.50;99.90;;;;;;4991134;28;20641;-79
2022/11/20 07:56:00;;;;;;;1.70;1.00;;;6.50;99.90;;;;;;5008794;28;20666;-78
2022/11/20 07:58:26;;;;;;;1.30;0.70;;;6.50;99.90;;;;;;5007675;28;20255;-77
2022/11/20 08:00:51;;;;;;;0.97;0.87;;;6.50;99.90;;;;;;4991322;28;20451;-78
2022/11/20 08:03:17;;;;;;;1.50;1.00;;;6.50;99.90;;;;;;5007790;28;20212;-78
2022/11/20 08:05:43;;;;;;;1.23;1.13;;;6.50;99.90;;;;;;5007332;28;20221;-78
2022/11/20 08:08:08;;;;;;;1.17;0.93;;;6.50;99.90;;;;;;4990864;28;20199;-77
2022/11/20 08:10:34;;;;;;;1.30;0.80;;;6.50;99.90;;;;;;5007322;28;20208;-77
2022/11/20 08:15:49;;;;;;;0.80;0.73;;;6.80;99.90;;;;;;5011476;28;20264;-79
2022/11/20 08:18:15;;;;;;;1.53;0.80;;;6.80;99.90;;;;;;5010484;28;20455;-78
2022/11/20 08:20:41;;;;;;;1.20;0.80;;;6.80;99.90;;;;;;5010635;28;20450;-79
2022/11/20 08:23:07;;;;;;;1.43;0.90;;;6.90;99.90;;;;;;5009316;28;20300;-78
2022/11/20 08:25:34;;;;;;;1.00;0.90;;;6.90;99.90;;;;;;5010769;28;20205;-78
2022/11/20 08:28:01;;;;;;;0.87;0.77;;;6.90;99.90;;;;;;4993120;28;20938;-78
2022/11/20 08:30:27;;;;;;;1.70;0.90;;;7.00;99.90;;;;;;5018454;28;20960;-77
2022/11/20 08:32:53;;;;;;;1.43;0.90;;;7.10;99.90;;;;;;5014307;28;20412;-79
2022/11/20 08:35:19;;;;;;;1.27;0.70;;;6.90;99.90;;;;;;5013208;28;20266;-78
2022/11/20 08:37:49;;;;;;;2.00;0.83;;;7.00;99.90;;;;;;5012292;28;20531;-77
2022/11/20 08:40:15;;;;;;;0.87;0.73;;;7.00;99.90;;;;;;5011198;28;20458;-78
2022/11/20 08:42:50;;;;;;;1.47;0.80;;;7.00;99.90;;;;;;5011930;28;20428;-79
2022/11/20 08:45:17;;;;;;;0.80;0.60;;;7.10;99.90;;;;;;5011730;28;20454;-78
2022/11/20 08:47:44;;;;;;;4.50;0.60;;;7.10;99.90;;;;;;4994057;28;20428;-79
2022/11/20 08:50:14;;;;;;;0.90;0.63;;;7.10;99.90;;;;;;5014240;28;20538;-78
2022/11/20 08:52:41;;;;;;;0.93;0.80;;;7.00;99.90;;;;;;5014386;28;20503;-78
2022/11/20 08:55:07;;;;;;;1.50;0.90;;;7.00;99.90;;;;;;5012364;28;20906;-78
2022/11/20 08:57:35;;;;;;;1.33;0.70;;;7.10;99.90;;;;;;5013562;28;20499;-80
2022/11/20 09:00:01;;;;;;;1.30;0.60;;;6.90;99.90;;;;;;5015662;28;20479;-79
2022/11/20 09:02:27;;;;;;;3.17;0.93;;;7.00;99.90;;;;;;5015743;28;20516;-79
2022/11/20 09:04:53;;;;;;;0.80;0.60;;;7.00;99.90;;;;;;5013973;28;20552;-79
2022/11/20 09:07:19;;;;;;;0.90;0.70;;;7.20;99.90;;;;;;5013961;28;20189;-79
2022/11/20 09:09:45;;;;;;;1.37;0.67;;;7.00;99.90;;;;;;5016044;28;20455;-79
2022/11/20 09:12:10;;;;;;;2.80;0.80;;;7.10;99.90;;;;;;5016258;28;20420;-80
2022/11/20 09:14:36;;;;;;;1.00;0.67;;;7.00;99.90;;;;;;5014850;28;20689;-80
2022/11/20 09:17:02;;;;;;;1.33;0.60;;;7.00;99.90;;;;;;5015147;28;20224;-80
2022/11/20 09:19:27;;;;;;;2.60;0.97;;;7.10;99.90;;;;;;5015011;28;20843;-80
2022/11/20 09:21:53;;;;;;;0.80;0.70;;;7.10;99.90;;;;;;5014224;28;20204;-80
2022/11/20 09:24:20;;;;;;;1.70;0.73;;;7.10;99.90;;;;;;5012742;28;20319;-80
2022/11/20 09:26:46;;;;;;;1.00;0.70;;;7.30;99.90;;;;;;5014407;28;20792;-80
2022/11/20 09:29:12;;;;;;;1.10;0.97;;;7.20;99.90;;;;;;5014550;28;20427;-80
2022/11/20 09:31:37;;;;;;;1.37;0.73;;;7.20;99.90;;;;;;5012380;28;20188;-80
2022/11/20 09:34:03;;;;;;;1.00;0.90;;;7.10;99.90;;;;;;5012414;28;20197;-80
2022/11/20 09:36:29;;;;;;;0.83;0.83;;;7.20;99.90;;;;;;5014336;28;20289;-81
2022/11/20 09:38:56;;;;;;;1.37;0.90;;;7.10;99.90;;;;;;4996407;28;20196;-81
2022/11/20 09:41:40;;;;;;;1.33;1.10;;;7.20;99.90;;;;;;5011695;28;20208;-79
2022/11/20 09:44:31;;;;;;;1.10;0.80;;;7.30;99.90;;;;;;5009434;28;20448;-81
2022/11/20 09:47:16;;;;;;;1.80;0.97;;;7.10;99.90;;;;;;5009658;28;20400;-80
2022/11/20 09:50:09;;;;;;;1.00;0.90;;;7.20;99.90;;;;;;5008715;28;20443;-78
2022/11/20 09:53:08;;;;;;;1.30;0.90;;;7.10;99.90;;;;;;5010032;28;20435;-79
2022/11/20 09:55:35;;;;;;;1.30;0.60;;;7.10;99.90;;;;;;5010528;28;20467;-79
2022/11/20 09:58:05;;;;;;;1.10;0.90;;;7.20;99.90;;;;;;5009180;28;20493;-78
2022/11/20 10:00:31;;;;;;;0.90;0.77;;;7.10;99.90;;;;;;5009244;28;20435;-79
2022/11/20 10:03:16;;;;;;;1.00;0.80;;;7.10;99.90;;;;;;5007932;28;21161;-79
2022/11/20 10:05:47;;;;;;;0.90;0.90;;;7.00;99.90;;;;;;5007618;28;20209;-79
2022/11/20 10:08:34;;;;;;;1.00;0.70;;;7.00;99.90;;;;;;5009029;28;20444;-78
2022/11/20 10:11:09;;;;;;;1.20;0.90;;;7.10;99.90;;;;;;5007751;28;20436;-78
2022/11/20 10:13:44;;;;;;;1.20;0.97;;;7.00;99.90;;;;;;5008597;28;20518;-77
2022/11/20 10:16:23;;;;;;;0.80;0.70;;;7.00;99.90;;;;;;5008795;28;20417;-78
2022/11/20 10:19:20;;;;;;;1.03;0.83;;;7.10;99.90;;;;;;5008444;28;20923;-78
2022/11/20 10:22:14;;;;;;;1.90;0.73;;;7.10;99.90;;;;;;5006889;28;20626;-78
2022/11/20 10:25:05;;;;;;;1.60;1.00;;;7.10;99.90;;;;;;4988724;28;20472;-78
2022/11/20 10:27:55;;;;;;;0.80;0.73;;;7.00;99.90;;;;;;5008319;28;20954;-78
2022/11/20 10:30:24;;;;;;;1.03;0.93;;;7.00;99.90;;;;;;5006910;28;20516;-78
2022/11/20 10:32:59;;;;;;;1.93;0.83;;;7.00;99.90;;;;;;5009614;28;20487;-79
2022/11/20 10:35:49;;;;;;;2.30;1.10;;;7.00;99.90;;;;;;5007601;28;20776;-79
2022/11/20 10:38:30;;;;;;;1.60;1.23;;;7.00;99.90;;;;;;5009672;28;20417;-79
2022/11/20 10:43:46;;;;;;;1.10;1.00;;;7.00;99.90;;;;;;5009532;28;20753;-77
2022/11/20 10:46:43;;;;;;;1.07;0.97;;;6.90;99.90;;;;;;5009613;28;20416;-81
2022/11/20 10:49:19;;;;;;;2.23;0.90;;;6.90;99.90;;;;;;5011444;28;20412;-81
2022/11/20 10:52:04;;;;;;;0.90;0.80;;;6.80;99.90;;;;;;5008772;28;20423;-85
2022/11/20 10:54:42;;;;;;;1.10;0.80;;;6.90;99.90;;;;;;5007684;28;20427;-81
2022/11/20 10:57:20;;;;;;;1.03;0.93;;;6.90;99.90;;;;;;5009801;28;20941;-82
2022/11/20 11:00:05;;;;;;;1.20;0.97;;;6.90;99.90;;;;;;5007906;28;20439;-80
2022/11/20 11:02:39;;;;;;;3.07;0.90;;;6.90;99.90;;;;;;5007957;28;20514;-82
2022/11/20 11:05:22;;;;;;;4.90;0.83;;;6.90;99.90;;;;;;5009640;28;21001;-79
2022/11/20 11:07:54;;;;;;;2.23;1.10;;;7.10;99.90;;;;;;5008172;28;20416;-82
2022/11/20 11:11:15;;;;;;;0.80;0.70;;;7.00;99.90;;;;;;5009159;28;20915;-80
2022/11/20 11:13:41;;;;;;;5.53;2.00;;;7.00;99.90;;;;;;4990998;28;20424;-80
2022/11/20 11:16:24;;;;;;;1.87;0.90;;;7.10;99.90;;;;;;4990989;28;20428;-79
2022/11/20 11:18:51;;;;;;;1.67;1.00;;;7.00;99.90;;;;;;5008239;28;20291;-80
2022/11/20 11:21:24;;;;;;;5.30;2.17;;;7.10;99.90;;;;;;5008185;28;20538;-76
2022/11/20 11:24:02;;;;;;;6.73;1.77;;;7.10;99.90;;;;;;5010035;28;20484;-77
2022/11/20 11:26:28;;;;;;;1.30;1.10;;;7.20;99.90;;;;;;5010684;28;20424;-79
2022/11/20 11:29:02;;;;;;;2.03;1.20;;;7.30;99.90;;;;;;5011115;28;20470;-77
2022/11/20 11:31:29;;;;;;;1.23;0.90;;;7.20;99.90;;;;;;5011690;28;20419;-78
2022/11/20 11:34:14;;;;;;;265.00;160.63;;;7.20;99.90;;;;;;5009674;28;20435;-78
2022/11/20 11:36:41;;;;;;;1.57;1.47;;;7.20;99.90;;;;;;5010813;28;20771;-78
2022/11/20 11:39:17;;;;;;;135.33;105.77;;;7.30;99.90;;;;;;5012134;28;20431;-77
2022/11/20 11:41:43;;;;;;;88.63;68.13;;;7.30;99.90;;;;;;5010143;28;20523;-78
2022/11/20 11:46:59;;;;;;;4.50;0.97;;;7.50;99.90;;;;;;5012279;28;20415;-78
2022/11/20 11:49:25;;;;;;;1.10;1.00;;;7.60;99.90;;;;;;4995439;28;20448;-78
2022/11/20 11:51:56;;;;;;;2.70;1.30;;;7.80;99.90;;;;;;4997058;28;20431;-78
2022/11/20 11:54:24;;;;;;;3.37;3.07;;;7.80;99.90;;;;;;5014502;28;20645;-78
2022/11/20 11:56:51;;;;;;;14.80;13.40;;;8.20;99.90;;;;;;5014953;28;20431;-78
2022/11/20 11:59:37;;;;;;;1.60;1.50;;;8.20;99.90;;;;;;5014605;28;20433;-77
2022/11/20 12:02:11;;;;;;;1.67;0.90;;;8.40;99.90;;;;;;4993982;28;20438;-78
2022/11/20 12:04:54;;;;;;;1.40;0.90;;;8.50;99.90;;;;;;5013573;28;20466;-77
2022/11/20 12:07:28;;;;;;;13.30;4.87;;;8.20;99.90;;;;;;5013283;28;20426;-77
2022/11/20 12:09:56;;;;;;;360.00;194.47;;;8.30;99.90;;;;;;5014299;28;20454;-78
2022/11/20 12:12:52;;;;;;;3.43;3.13;;;8.50;99.90;;;;;;4995522;28;20512;-77
2022/11/20 12:15:29;;;;;;;1.00;0.80;;;8.40;99.90;;;;;;4994455;28;20515;-77
2022/11/20 12:17:55;;;;;;;1.90;0.73;;;8.50;99.90;;;;;;5012221;28;20439;-78
2022/11/20 12:20:28;;;;;;;0.80;0.80;;;8.20;99.90;;;;;;5012338;28;21330;-78
2022/11/20 12:23:42;;;;;;;1.67;0.70;;;8.30;99.90;;;;;;5011891;28;20933;-77
2022/11/20 12:26:32;;;;;;;3.00;0.77;;;8.30;99.90;;;;;;4998698;28;20483;-77
2022/11/20 12:29:14;;;;;;;8.27;5.47;;;8.20;99.90;;;;;;5012357;28;20420;-77
2022/11/20 12:31:42;;;;;;;6.27;5.70;;;8.30;99.90;;;;;;5012866;28;20428;-78
2022/11/20 12:34:23;;;;;;;13.10;10.43;;;8.30;99.90;;;;;;5015625;28;20527;-79
2022/11/20 12:37:01;;;;;;;10.13;5.80;;;8.30;99.90;;;;;;5016147;28;20427;-78
2022/11/20 12:39:32;;;;;;;115.30;53.63;;;8.20;99.90;;;;;;5016242;28;20534;-77
2022/11/20 12:45:10;;;;;;;4.00;0.93;;;8.10;99.90;;;;;;5012244;28;20454;-81
2022/11/20 12:47:50;;;;;;;4.90;3.10;;;8.00;99.90;;;;;;5011100;28;20418;-80
2022/11/20 12:50:34;;;;;;;5.47;5.07;;;8.00;99.90;;;;;;5010118;28;20443;-81
2022/11/20 12:53:09;;;;;;;1.53;0.70;;;8.00;99.90;;;;;;5009767;28;20428;-80
2022/11/20 12:56:01;;;;;;;1.70;0.77;;;8.00;99.90;;;;;;4993603;28;20436;-77
2022/11/20 12:58:47;;;;;;;1.20;0.70;;;8.00;99.90;;;;;;5010679;28;20419;-77
2022/11/20 13:01:47;;;;;;;1.83;0.70;;;8.20;99.90;;;;;;5010012;28;20448;-77
2022/11/20 13:04:36;;;;;;;10.97;5.77;;;8.30;99.90;;;;;;5010560;28;20460;-77
2022/11/20 13:07:24;;;;;;;5.37;4.07;;;8.40;99.90;;;;;;5008937;28;20924;-77
2022/11/20 13:09:51;;;;;;;1.30;0.93;;;8.50;99.90;;;;;;5010037;28;20487;-77
2022/11/20 13:12:16;;;;;;;1.30;1.00;;;8.30;99.90;;;;;;5010161;28;20795;-77
2022/11/20 13:14:53;;;;;;;6.70;2.57;;;8.40;99.90;;;;;;5010465;28;20447;-77
2022/11/20 13:17:45;;;;;;;2.17;1.10;;;8.50;99.90;;;;;;5009888;28;20228;-77
2022/11/20 13:20:16;;;;;;;1.10;0.90;;;8.50;99.90;;;;;;5004592;28;20966;-77
2022/11/20 13:22:48;;;;;;;1.27;0.80;;;8.40;99.90;;;;;;4992558;28;20965;-78
2022/11/20 13:25:42;;;;;;;0.90;0.70;;;8.30;99.90;;;;;;5009974;28;20503;-77